Energy Challenger — MJUV7 — position and weather

sailwx.info

Track history (hours):
 
Tides and Currents Weather Stations Pressure Air Temp Water Temp Dewpoint Dewpoint Depression Visibility Wind Speed Wind Dir Waves Ship Positions

Energy Challenger

Last reported at 2017-Nov-16 17:48 UTC. Time now 2017-Nov-20 04:06 UTC.
Position N 29°27' W 094°50'.

Length 228 m; draft 8 m.

Type: Tanker. MMSI: 235009400.

Date/timePositionNaut miles runAvg speedWind from/ knotsBaromVisibWave heightAir tempDewpointWater temp
2017-Nov-16 17:48N 29°27' W 094°50'412.6
2017-Nov-16 17:31N 29°30' W 094°52'612.0
2017-Nov-16 17:01N 29°35' W 094°56'611.7
2017-Nov-16 16:30N 29°40' W 094°59'3 6.9
2017-Nov-16 16:00N 29°43' W 095°01'4 7.4
2017-Nov-16 15:30N 29°46' W 095°04'3 5.3
2017-Nov-16 15:00N 29°44' W 095°07'3 5.5
2017-Nov-16 14:30N 29°45' W 095°10'3 5.8
2017-Nov-16 14:00N 29°43' W 095°13'1 0.0
2017-Nov-14 14:50N 29°43' W 095°14'0 0.3
2017-Nov-14 14:30N 29°43' W 095°14'2 3.4
2017-Nov-14 14:00N 29°44' W 095°12'2 4.5
2017-Nov-14 13:30N 29°45' W 095°10'3 6.2
2017-Nov-14 13:00N 29°44' W 095°07'2 5.0
2017-Nov-14 12:30N 29°45' W 095°04'4 7.3
2017-Nov-14 12:00N 29°42' W 095°01'5 9.4
2017-Nov-14 11:30N 29°38' W 094°58'510.7
2017-Nov-14 11:00N 29°33' W 094°55'611.9
2017-Nov-14 10:30N 29°28' W 094°51'  
Track history (hours):
 
Tides and Currents Weather Stations Pressure Air Temp Water Temp Dewpoint Dewpoint Depression Visibility Wind Speed Wind Dir Waves Ship Positions

Energy Challenger

Last reported at 2017-Nov-16 17:48 UTC. Time now 2017-Nov-20 04:06 UTC.
Position N 29°27' W 094°50'.

Length 228 m; draft 8 m.

Type: Tanker. MMSI: 235009400.

Date/timePositionNaut miles runAvg speedWind from/ knotsBaromVisibWave heightAir tempDewpointWater temp
2017-Nov-16 17:48N 29°27' W 094°50'412.6
2017-Nov-16 17:31N 29°30' W 094°52'612.0
2017-Nov-16 17:01N 29°35' W 094°56'611.7
2017-Nov-16 16:30N 29°40' W 094°59'3 6.9
2017-Nov-16 16:00N 29°43' W 095°01'4 7.4
2017-Nov-16 15:30N 29°46' W 095°04'3 5.3
2017-Nov-16 15:00N 29°44' W 095°07'3 5.5
2017-Nov-16 14:30N 29°45' W 095°10'3 5.8
2017-Nov-16 14:00N 29°43' W 095°13'1 0.0
2017-Nov-14 14:50N 29°43' W 095°14'0 0.3
2017-Nov-14 14:30N 29°43' W 095°14'2 3.4
2017-Nov-14 14:00N 29°44' W 095°12'2 4.5
2017-Nov-14 13:30N 29°45' W 095°10'3 6.2
2017-Nov-14 13:00N 29°44' W 095°07'2 5.0
2017-Nov-14 12:30N 29°45' W 095°04'4 7.3
2017-Nov-14 12:00N 29°42' W 095°01'5 9.4
2017-Nov-14 11:30N 29°38' W 094°58'510.7
2017-Nov-14 11:00N 29°33' W 094°55'611.9
2017-Nov-14 10:30N 29°28' W 094°51'  

Dump ship's entire track history